Felix-Klein-Gymnasium, Gttingen, 150m NN
Donnes mto: Actuelle Montag, 28.09.2020 16:00
Date Horaire Temp. E. Hum. E. P.atmo. Pluie Vent Direction Direction Ensoleilleme P. de rose Temp au vent Rafales
28.09.2020 16:00 16,6 C 58 % 1008,2 hPa 0,0 mm 3,6 km/h (1 Bft) S-SE 150 15 min 8,3 C 16,6 C 17,7 km/h (3 Bft)
28.09.2020 15:45 16,4 C 58 % 1008,2 hPa 0,0 mm 2,3 km/h (1 Bft) S-SE 148 15 min 8,1 C 16,4 C 11,3 km/h (2 Bft)
28.09.2020 15:30 16,2 C 59 % 1008,3 hPa 0,0 mm 4,6 km/h (1 Bft) S 171 15 min 8,2 C 16,2 C 14,5 km/h (3 Bft)
28.09.2020 15:15 16,4 C 58 % 1008,3 hPa 0,0 mm 3,5 km/h (1 Bft) S 187 15 min 8,1 C 16,4 C 19,3 km/h (3 Bft)
28.09.2020 15:00 16,4 C 58 % 1008,3 hPa 0,0 mm 3,6 km/h (1 Bft) S 171 15 min 8,1 C 16,4 C 16,1 km/h (3 Bft)
28.09.2020 14:45 15,9 C 61 % 1008,4 hPa 0,0 mm 0,7 km/h (0 Bft) E-SE 109 15 min 8,4 C 15,9 C 11,3 km/h (2 Bft)
28.09.2020 14:30 15,1 C 65 % 1008,4 hPa 0,0 mm 1,6 km/h (1 Bft) S-SE 162 0 min 8,6 C 15,1 C 9,7 km/h (2 Bft)
28.09.2020 14:15 15,0 C 65 % 1008,4 hPa 0,0 mm 0,5 km/h (0 Bft) S-SO 202 0 min 8,5 C 15,0 C 8,0 km/h (2 Bft)
28.09.2020 14:00 14,7 C 69 % 1008,6 hPa 0,0 mm 0,7 km/h (0 Bft) O-SO 240 0 min 9,1 C 14,7 C 8,0 km/h (2 Bft)
28.09.2020 13:45 14,4 C 71 % 1008,7 hPa 0,0 mm 0,2 km/h (0 Bft) SE 126 0 min 9,2 C 14,4 C 4,8 km/h (1 Bft)
28.09.2020 13:30 14,1 C 72 % 1008,8 hPa 0,0 mm 0,5 km/h (0 Bft) E 91 15 min 9,1 C 14,1 C 8,0 km/h (2 Bft)
28.09.2020 13:15 13,5 C 76 % 1008,7 hPa 0,0 mm 0,5 km/h (0 Bft) E 94 0 min 9,4 C 13,5 C 8,0 km/h (2 Bft)
28.09.2020 13:00 13,3 C 75 % 1008,8 hPa 0,0 mm 2,2 km/h (1 Bft) E 93 0 min 9,0 C 13,3 C 14,5 km/h (3 Bft)
28.09.2020 12:45 13,4 C 75 % 1008,6 hPa 0,0 mm 4,1 km/h (1 Bft) E 80 0 min 9,1 C 13,4 C 16,1 km/h (3 Bft)
28.09.2020 12:30 13,5 C 75 % 1008,5 hPa 0,0 mm 6,6 km/h (2 Bft) E 81 0 min 9,2 C 13,5 C 16,1 km/h (3 Bft)
28.09.2020 12:15 13,6 C 76 % 1008,3 hPa 0,0 mm 2,6 km/h (1 Bft) E-NE 78 15 min 9,4 C 13,6 C 16,1 km/h (3 Bft)
28.09.2020 12:00 13,5 C 76 % 1008,2 hPa 0,0 mm 3,8 km/h (1 Bft) E 79 0 min 9,4 C 13,5 C 14,5 km/h (3 Bft)
28.09.2020 11:45 13,7 C 76 % 1008,1 hPa 0,0 mm 3,0 km/h (1 Bft) E 90 0 min 9,5 C 13,7 C 16,1 km/h (3 Bft)
28.09.2020 11:30 13,3 C 75 % 1008,1 hPa 0,0 mm 4,9 km/h (1 Bft) S 179 0 min 9,0 C 13,3 C 17,7 km/h (3 Bft)
28.09.2020 11:15 12,8 C 78 % 1008,0 hPa 0,0 mm 2,8 km/h (1 Bft) SE 146 0 min 9,1 C 12,8 C 12,9 km/h (3 Bft)
28.09.2020 11:00 12,6 C 81 % 1007,9 hPa 0,0 mm 1,0 km/h (0 Bft) E 90 0 min 9,4 C 12,6 C 11,3 km/h (2 Bft)
28.09.2020 10:45 12,2 C 82 % 1007,9 hPa 0,0 mm 1,8 km/h (1 Bft) SE 130 0 min 9,2 C 12,2 C 9,7 km/h (2 Bft)
28.09.2020 10:30 12,1 C 83 % 1007,9 hPa 0,0 mm 2,3 km/h (1 Bft) SE 133 0 min 9,3 C 12,1 C 11,3 km/h (2 Bft)
28.09.2020 10:15 11,4 C 86 % 1008,0 hPa 0,0 mm 2,5 km/h (1 Bft) SE 143 15 min 9,1 C 11,4 C 12,9 km/h (3 Bft)
28.09.2020 10:00 10,8 C 90 % 1008,0 hPa 0,0 mm 1,1 km/h (1 Bft) E-NE 70 15 min 9,2 C 10,8 C 11,3 km/h (2 Bft)
28.09.2020 09:45 10,3 C 91 % 1008,0 hPa 0,0 mm 0,2 km/h (0 Bft) E 96 0 min 8,9 C 10,3 C 4,8 km/h (1 Bft)
28.09.2020 09:30 9,9 C 92 % 1008,0 hPa 0,0 mm 0,1 km/h (0 Bft) E 98 0 min 8,7 C 9,9 C 4,8 km/h (1 Bft)
28.09.2020 09:15 9,6 C 93 % 1008,0 hPa 0,0 mm 0,0 km/h (0 Bft) E-SE 115 0 min 8,5 C 9,6 C 1,6 km/h (1 Bft)
28.09.2020 09:00 9,3 C 93 % 1008,0 hPa 0,0 mm 0,0 km/h (0 Bft) E 101 0 min 8,2 C 9,3 C 0,0 km/h (0 Bft)
28.09.2020 08:45 9,0 C 94 % 1008,2 hPa 0,0 mm 0,0 km/h (0 Bft) E 100 0 min 8,1 C 9,0 C 1,6 km/h (1 Bft)
28.09.2020 08:30 8,8 C 94 % 1007,9 hPa 0,0 mm 0,0 km/h (0 Bft) E 100 0 min 7,9 C 8,8 C 1,6 km/h (1 Bft)
28.09.2020 08:15 8,6 C 94 % 1007,7 hPa 0,0 mm 0,0 km/h (0 Bft) SE 127 0 min 7,7 C 8,6 C 1,6 km/h (1 Bft)
28.09.2020 08:00 8,3 C 95 % 1007,5 hPa 0,0 mm 0,0 km/h (0 Bft) E-SE 123 0 min 7,5 C 8,3 C 1,6 km/h (1 Bft)
28.09.2020 07:45 8,2 C 94 % 1007,4 hPa 0,0 mm 0,0 km/h (0 Bft) E-SE 112 0 min 7,3 C 8,2 C 0,0 km/h (0 Bft)
28.09.2020 07:30 8,0 C 94 % 1007,5 hPa 0,0 mm 0,0 km/h (0 Bft) E-SE 112 0 min 7,1 C 8,0 C 0,0 km/h (0 Bft)
28.09.2020 07:15 7,9 C 95 % 1007,4 hPa 0,0 mm 0,0 km/h (0 Bft) E-SE 112 0 min 7,1 C 7,9 C 1,6 km/h (1 Bft)
28.09.2020 07:00 7,8 C 94 % 1007,2 hPa 0,0 mm 0,0 km/h (0 Bft) E-SE 111 0 min 6,9 C 7,8 C 1,6 km/h (1 Bft)
28.09.2020 06:45 7,7 C 94 % 1007,1 hPa 0,0 mm 0,0 km/h (0 Bft) E 100 0 min 6,8 C 7,7 C 0,0 km/h (0 Bft)
28.09.2020 06:30 7,7 C 94 % 1006,9 hPa 0,0 mm 0,0 km/h (0 Bft) E 99 0 min 6,8 C 7,7 C 0,0 km/h (0 Bft)
28.09.2020 06:15 7,7 C 94 % 1006,9 hPa 0,0 mm 0,0 km/h (0 Bft) E 98 0 min 6,8 C 7,7 C 0,0 km/h (0 Bft)
28.09.2020 06:00 7,6 C 94 % 1006,8 hPa 0,0 mm 0,0 km/h (0 Bft) E 98 0 min 6,7 C 7,6 C 0,0 km/h (0 Bft)
28.09.2020 05:45 7,5 C 94 % 1006,6 hPa 0,0 mm 0,0 km/h (0 Bft) E 98 0 min 6,6 C 7,5 C 0,0 km/h (0 Bft)
28.09.2020 05:30 7,4 C 94 % 1006,6 hPa 0,0 mm 0,0 km/h (0 Bft) E 97 0 min 6,5 C 7,4 C 0,0 km/h (0 Bft)
28.09.2020 05:15 7,4 C 94 % 1006,5 hPa 0,0 mm 0,0 km/h (0 Bft) E 97 0 min 6,5 C 7,4 C 0,0 km/h (0 Bft)
28.09.2020 05:00 7,4 C 94 % 1006,6 hPa 0,0 mm 0,0 km/h (0 Bft) E-SE 104 0 min 6,5 C 7,4 C 0,0 km/h (0 Bft)
28.09.2020 04:45 7,4 C 94 % 1006,6 hPa 0,0 mm 0,0 km/h (0 Bft) E-SE 103 0 min 6,5 C 7,4 C 1,6 km/h (1 Bft)
28.09.2020 04:30 7,4 C 93 % 1006,7 hPa 0,0 mm 0,0 km/h (0 Bft) E 83 0 min 6,3 C 7,4 C 1,6 km/h (1 Bft)
28.09.2020 04:15 7,4 C 93 % 1006,9 hPa 0,0 mm 0,0 km/h (0 Bft) E 83 0 min 6,3 C 7,4 C 0,0 km/h (0 Bft)
28.09.2020 04:00 7,4 C 93 % 1006,8 hPa 0,0 mm 0,0 km/h (0 Bft) E 83 0 min 6,3 C 7,4 C 0,0 km/h (0 Bft)
28.09.2020 03:45 7,5 C 93 % 1006,7 hPa 0,0 mm 0,0 km/h (0 Bft) E 83 0 min 6,4 C 7,5 C 0,0 km/h (0 Bft)
28.09.2020 03:30 7,7 C 93 % 1006,7 hPa 0,0 mm 0,0 km/h (0 Bft) E 83 0 min 6,6 C 7,7 C 0,0 km/h (0 Bft)
28.09.2020 03:15 7,8 C 93 % 1006,6 hPa 0,0 mm 0,0 km/h (0 Bft) E 83 0 min 6,7 C 7,8 C 0,0 km/h (0 Bft)
28.09.2020 03:00 7,8 C 93 % 1006,6 hPa 0,0 mm 0,0 km/h (0 Bft) E 83 0 min 6,7 C 7,8 C 0,0 km/h (0 Bft)
28.09.2020 02:45 7,7 C 93 % 1006,6 hPa 0,0 mm 0,0 km/h (0 Bft) E 83 0 min 6,6 C 7,7 C 0,0 km/h (0 Bft)
28.09.2020 02:30 7,7 C 92 % 1006,4 hPa 0,0 mm 0,0 km/h (0 Bft) E 83 0 min 6,5 C 7,7 C 0,0 km/h (0 Bft)
28.09.2020 02:15 7,9 C 92 % 1006,2 hPa 0,0 mm 0,0 km/h (0 Bft) E-SE 102 0 min 6,7 C 7,9 C 0,0 km/h (0 Bft)
28.09.2020 02:00 8,1 C 91 % 1006,4 hPa 0,0 mm 0,0 km/h (0 Bft) E-SE 102 0 min 6,7 C 8,1 C 0,0 km/h (0 Bft)
28.09.2020 01:45 8,3 C 91 % 1006,6 hPa 0,0 mm 0,0 km/h (0 Bft) E-SE 103 0 min 6,9 C 8,3 C 0,0 km/h (0 Bft)
28.09.2020 01:30 8,6 C 91 % 1006,7 hPa 0,0 mm 0,0 km/h (0 Bft) E-SE 108 0 min 7,2 C 8,6 C 3,2 km/h (1 Bft)
28.09.2020 01:15 8,8 C 90 % 1006,7 hPa 0,0 mm 0,0 km/h (0 Bft) SE 124 0 min 7,3 C 8,8 C 1,6 km/h (1 Bft)
28.09.2020 01:00 9,1 C 90 % 1006,9 hPa 0,0 mm 0,0 km/h (0 Bft) E-SE 105 0 min 7,5 C 9,1 C 0,0 km/h (0 Bft)
28.09.2020 00:45 9,3 C 90 % 1006,9 hPa 0,0 mm 0,0 km/h (0 Bft) E-SE 103 0 min 7,7 C 9,3 C 0,0 km/h (0 Bft)
28.09.2020 00:30 9,5 C 89 % 1006,9 hPa 0,0 mm 0,0 km/h (0 Bft) E-SE 103 0 min 7,8 C 9,5 C 0,0 km/h (0 Bft)
28.09.2020 00:15 9,7 C 89 % 1006,7 hPa 0,0 mm 0,0 km/h (0 Bft) E-SE 107 0 min 8,0 C 9,7 C 3,2 km/h (1 Bft)
28.09.2020 00:00 9,9 C 88 % 1006,6 hPa 0,0 mm 0,2 km/h (0 Bft) E-SE 110 0 min 8,0 C 9,9 C 6,4 km/h (2 Bft)
27.09.2020 22:45 10,9 C 86 % 1006,3 hPa 0,0 mm 0,0 km/h (0 Bft) E 94 0 min 8,7 C 10,9 C 1,6 km/h (1 Bft)
27.09.2020 22:30 10,9 C 85 % 1006,3 hPa 0,0 mm 0,5 km/h (0 Bft) E 101 0 min 8,5 C 10,9 C 8,0 km/h (2 Bft)
27.09.2020 22:15 11,1 C 85 % 1006,1 hPa 0,0 mm 0,0 km/h (0 Bft) E-SE 111 0 min 8,7 C 11,1 C 0,0 km/h (0 Bft)
27.09.2020 22:00 11,1 C 85 % 1006,0 hPa 0,0 mm 0,0 km/h (0 Bft) E-SE 111 0 min 8,7 C 11,1 C 1,6 km/h (1 Bft)
27.09.2020 21:45 11,1 C 85 % 1005,8 hPa 0,0 mm 1,3 km/h (1 Bft) E 90 0 min 8,7 C 11,1 C 9,7 km/h (2 Bft)
27.09.2020 21:30 11,2 C 84 % 1005,6 hPa 0,0 mm 0,0 km/h (0 Bft) E-SE 103 0 min 8,6 C 11,2 C 1,6 km/h (1 Bft)
27.09.2020 21:15 11,3 C 84 % 1005,4 hPa 0,0 mm 0,0 km/h (0 Bft) E-SE 102 0 min 8,7 C 11,3 C 3,2 km/h (1 Bft)
27.09.2020 21:00 11,4 C 82 % 1005,3 hPa 0,0 mm 0,1 km/h (0 Bft) E-SE 107 0 min 8,4 C 11,4 C 4,8 km/h (1 Bft)
27.09.2020 20:45 11,5 C 81 % 1005,2 hPa 0,0 mm 0,1 km/h (0 Bft) E 88 0 min 8,4 C 11,5 C 3,2 km/h (1 Bft)
27.09.2020 20:30 11,6 C 81 % 1005,2 hPa 0,0 mm 0,1 km/h (0 Bft) E 99 0 min 8,5 C 11,6 C 8,0 km/h (2 Bft)
27.09.2020 20:15 11,7 C 80 % 1005,2 hPa 0,0 mm 0,1 km/h (0 Bft) E 92 0 min 8,4 C 11,7 C 4,8 km/h (1 Bft)
27.09.2020 20:00 11,7 C 79 % 1005,2 hPa 0,0 mm 0,3 km/h (0 Bft) E 86 0 min 8,2 C 11,7 C 4,8 km/h (1 Bft)
27.09.2020 19:45 11,8 C 79 % 1004,9 hPa 0,0 mm 0,1 km/h (0 Bft) E 88 0 min 8,3 C 11,8 C 3,2 km/h (1 Bft)
27.09.2020 19:30 11,8 C 78 % 1004,9 hPa 0,0 mm 0,0 km/h (0 Bft) E 86 0 min 8,1 C 11,8 C 1,6 km/h (1 Bft)
27.09.2020 19:15 11,9 C 78 % 1004,8 hPa 0,0 mm 0,0 km/h (0 Bft) E 86 0 min 8,2 C 11,9 C 0,0 km/h (0 Bft)
27.09.2020 19:00 12,1 C 78 % 1004,7 hPa 0,0 mm 0,5 km/h (0 Bft) E 84 0 min 8,4 C 12,1 C 4,8 km/h (1 Bft)
27.09.2020 18:45 12,2 C 77 % 1004,6 hPa 0,0 mm 0,0 km/h (0 Bft) E 93 0 min 8,3 C 12,2 C 0,0 km/h (0 Bft)
27.09.2020 18:30 12,3 C 76 % 1004,3 hPa 0,0 mm 0,3 km/h (0 Bft) E 92 0 min 8,2 C 12,3 C 8,0 km/h (2 Bft)
27.09.2020 18:15 12,5 C 74 % 1004,2 hPa 0,0 mm 2,2 km/h (1 Bft) E 96 0 min 8,0 C 12,5 C 14,5 km/h (3 Bft)
27.09.2020 18:00 12,8 C 73 % 1004,0 hPa 0,0 mm 0,1 km/h (0 Bft) E 94 0 min 8,1 C 12,8 C 4,8 km/h (1 Bft)
27.09.2020 17:45 12,9 C 72 % 1003,7 hPa 0,0 mm 0,0 km/h (0 Bft) E 98 0 min 8,0 C 12,9 C 0,0 km/h (0 Bft)
27.09.2020 17:30 12,9 C 73 % 1003,8 hPa 0,0 mm 0,0 km/h (0 Bft) E 96 0 min 8,2 C 12,9 C 1,6 km/h (1 Bft)
27.09.2020 17:15 12,8 C 72 % 1003,7 hPa 0,0 mm 0,0 km/h (0 Bft) E 96 0 min 7,9 C 12,8 C 0,0 km/h (0 Bft)
27.09.2020 17:00 12,7 C 73 % 1003,6 hPa 0,0 mm 0,0 km/h (0 Bft) E 94 0 min 8,0 C 12,7 C 1,6 km/h (1 Bft)
_ Min-Heure 04:00 15:00 17:00 - 17:00 - - - 04:00 04:00 17:15
Minimum _ 7,4 C 58 % 1003,6 hPa - 0,0 km/h (0 Bft) - - - 6,3 C 7,4 C 0,0 km/h (0 Bft)
_ Max-Heure 16:00 07:15 13:00 17:00 12:30 - - 10:00 11:45 16:00 15:15
Maximum _ 16,6 C 95 % 1008,8 hPa 0,0 mm 6,6 km/h
E (2 Bft)
- - 15 min 9,5 C 16,6 C 19,3 km/h
S (3 Bft)
Moyenne _ 10,9 C 83 % 1006,6 hPa #0,0 mm 0,7 km/h (0 Bft) E - #2:30 h 8,0 C 10,9 C 4,8 km/h (1 Bft)